createdAt,value
2023-05-07T09:44:26.402Z,810.00
2023-05-07T09:45:26.313Z,815.63
2023-05-07T09:46:26.283Z,815.63
2023-05-07T09:47:26.330Z,821.25
2023-05-07T09:48:26.266Z,832.50
2023-05-07T09:49:26.258Z,832.50
2023-05-07T09:50:26.236Z,843.75
2023-05-07T09:51:26.237Z,849.38
2023-05-07T09:52:58.211Z,866.25
2023-05-07T09:53:58.181Z,877.50
2023-05-07T09:54:58.190Z,888.75
2023-05-07T09:55:58.181Z,894.38
2023-05-07T09:56:58.177Z,894.38
2023-05-07T09:57:58.131Z,900.00
2023-05-07T09:58:58.141Z,900.00
2023-05-07T09:59:58.162Z,900.00
2023-05-07T10:00:58.142Z,900.00
2023-05-07T10:01:58.104Z,900.00
2023-05-07T10:02:58.222Z,900.00
2023-05-07T10:03:58.251Z,894.38
2023-05-07T10:04:58.083Z,900.00
2023-05-07T10:05:58.074Z,894.38
2023-05-07T10:06:58.079Z,894.38
2023-05-07T10:07:58.051Z,888.75
2023-05-07T10:08:58.042Z,894.38
2023-05-07T10:09:58.016Z,911.25
2023-05-07T10:10:58.033Z,911.25
2023-05-07T10:11:57.994Z,933.75
2023-05-07T10:12:58.048Z,950.63
2023-05-07T10:13:57.989Z,967.50
2023-05-07T10:14:57.968Z,990.00
2023-05-07T10:15:58.163Z,1023.75
2023-05-07T10:16:57.966Z,1046.25
2023-05-07T10:17:58.039Z,1051.88
2023-05-07T10:18:57.931Z,1068.75
2023-05-07T10:19:57.926Z,1063.13
2023-05-07T10:20:57.914Z,1074.38
2023-05-07T10:21:57.922Z,1080.00
2023-05-07T10:22:57.898Z,1091.25
2023-05-07T10:23:57.878Z,1085.63
2023-05-07T10:24:57.893Z,1080.00
2023-05-07T10:26:01.027Z,1074.38
2023-05-07T10:26:57.879Z,1074.38
2023-05-07T10:27:57.846Z,1080.00
2023-05-07T10:28:57.860Z,1068.75
2023-05-07T10:29:57.864Z,1051.88
2023-05-07T10:30:57.864Z,1029.38
2023-05-07T10:31:57.899Z,984.38
2023-05-07T10:32:57.874Z,950.63
2023-05-07T10:33:57.802Z,900.00
2023-05-07T10:34:57.813Z,832.50
2023-05-07T10:49:32.084Z,765.00
2023-05-07T10:50:34.084Z,770.63
2023-05-07T10:51:34.024Z,776.25
2023-05-07T10:57:35.649Z,781.88
2023-05-07T10:58:31.495Z,798.75
2023-05-07T10:59:22.508Z,821.25
2023-05-07T11:00:39.313Z,838.13
2023-05-07T11:01:36.393Z,849.38
2023-05-07T11:02:36.413Z,866.25
2023-05-07T11:03:36.320Z,877.50
2023-05-07T11:04:36.451Z,888.75
2023-05-07T11:05:38.295Z,866.25
2023-05-07T11:06:36.300Z,871.88
2023-05-07T11:07:36.303Z,894.38
2023-05-07T11:08:36.299Z,900.00
2023-05-07T11:09:36.276Z,911.25
2023-05-07T11:10:36.274Z,939.38
2023-05-07T11:11:36.252Z,967.50
2023-05-07T11:12:36.316Z,978.75
2023-05-07T11:13:36.244Z,995.63
2023-05-07T11:14:36.216Z,990.00
2023-05-07T11:15:36.215Z,990.00
2023-05-07T11:16:36.242Z,984.38
2023-05-07T11:17:37.417Z,984.38
2023-05-07T11:18:36.198Z,973.13
2023-05-07T11:19:36.186Z,928.13
2023-05-07T11:20:36.180Z,922.50
2023-05-07T11:21:36.144Z,922.50
2023-05-07T11:22:36.144Z,911.25
2023-05-07T11:23:36.139Z,900.00
2023-05-07T11:24:36.125Z,894.38
2023-05-07T11:25:36.124Z,894.38
2023-05-07T11:26:36.132Z,900.00
2023-05-07T11:27:36.118Z,883.13
2023-05-07T11:28:36.125Z,871.88
2023-05-07T11:29:36.096Z,877.50
2023-05-07T11:30:36.097Z,871.88
2023-05-07T11:31:36.208Z,883.13
2023-05-07T11:32:36.092Z,905.63
2023-05-07T11:33:36.060Z,945.00
2023-05-07T11:34:36.043Z,961.88
2023-05-07T11:35:37.176Z,973.13
2023-05-07T11:36:36.088Z,973.13
2023-05-07T11:37:36.005Z,978.75
2023-05-07T11:38:36.018Z,978.75
2023-05-07T11:39:35.995Z,950.63
2023-05-07T11:40:35.997Z,922.50
2023-05-07T11:41:36.144Z,877.50
2023-05-07T13:35:15.651Z,877.50
2023-05-07T13:36:15.682Z,911.25
2023-05-07T13:37:15.605Z,939.38
2023-05-07T13:38:15.614Z,995.63
2023-05-07T13:39:15.592Z,1068.75
2023-05-07T13:40:15.581Z,1108.13
2023-05-07T13:41:15.569Z,1153.13
2023-05-07T13:42:15.553Z,1406.25
2023-05-07T13:43:15.556Z,1985.63
2023-05-07T13:44:15.531Z,1935.00
2023-05-07T13:45:15.525Z,1980.00
2023-05-07T13:46:15.506Z,2075.63
2023-05-07T13:47:15.511Z,1968.75
2023-05-07T13:48:15.511Z,2058.75
2023-05-07T13:49:15.446Z,1985.63
2023-05-07T13:50:15.440Z,1800.00
2023-05-07T13:51:15.422Z,1676.25
2023-05-07T13:52:15.435Z,1710.00
2023-05-07T13:53:15.411Z,1704.38
2023-05-07T13:54:15.410Z,1698.75
2023-05-07T13:55:15.372Z,1636.88
2023-05-07T13:56:15.373Z,1591.88
2023-05-07T13:57:15.363Z,1597.50
2023-05-07T13:58:15.365Z,1625.63
2023-05-07T13:59:15.448Z,1614.38
2023-05-07T14:00:15.383Z,1693.13
2023-05-07T14:01:15.341Z,1642.50
2023-05-07T14:02:15.343Z,1597.50
2023-05-07T14:03:15.424Z,1636.88
2023-05-07T14:04:15.329Z,1569.38
2023-05-07T14:05:15.309Z,1608.75
2023-05-07T14:06:15.261Z,1434.38
2023-05-07T14:07:15.267Z,1260.00
2023-05-07T14:08:15.287Z,1158.75
2023-05-07T14:09:15.247Z,1147.50
2023-05-07T14:10:15.418Z,1260.00
2023-05-07T14:11:15.236Z,1524.38
2023-05-07T14:12:15.230Z,1552.50
2023-05-07T14:13:15.267Z,1485.00
2023-05-07T14:14:15.203Z,1366.88
2023-05-07T14:15:15.205Z,1063.13
2023-05-07T14:16:15.199Z,1001.25
2023-05-07T14:17:15.265Z,961.88
2023-05-07T14:18:15.171Z,928.13
2023-05-07T14:19:15.163Z,916.88
2023-05-07T14:20:15.329Z,900.00
